createdAt,value
2022-10-23T00:00:10.224Z,11.57
2022-10-23T00:02:38.184Z,7.60
2022-10-23T00:05:06.656Z,7.20
2022-10-23T00:07:34.552Z,11.07
2022-10-23T00:10:04.330Z,13.45
2022-10-23T00:12:32.565Z,16.67
2022-10-23T00:15:00.535Z,9.75
2022-10-23T00:17:28.408Z,11.07
2022-10-23T00:19:56.267Z,11.93
2022-10-23T00:22:24.077Z,18.33
2022-10-23T00:24:52.027Z,12.68
2022-10-23T00:27:21.307Z,9.98
2022-10-23T00:29:49.269Z,11.67
2022-10-23T00:32:17.178Z,12.73
2022-10-23T00:34:45.163Z,10.88
2022-10-23T00:37:13.336Z,11.02
2022-10-23T00:39:41.643Z,9.88
2022-10-23T00:42:11.898Z,11.95
2022-10-23T00:47:28.685Z,9.40
2022-10-23T00:49:56.641Z,9.82
2022-10-23T00:52:24.526Z,10.15
2022-10-23T00:54:52.406Z,10.82
2022-10-23T00:57:20.327Z,9.48
2022-10-23T00:59:48.709Z,13.23
2022-10-23T01:02:17.606Z,9.27
2022-10-23T01:04:46.960Z,10.00
2022-10-23T01:07:19.478Z,9.60
2022-10-23T01:09:56.065Z,9.70
2022-10-23T01:12:31.168Z,11.18
2022-10-23T01:15:05.393Z,9.50
2022-10-23T01:17:40.884Z,10.40
2022-10-23T01:20:25.091Z,10.77
2022-10-23T01:23:13.540Z,10.25
2022-10-23T01:26:03.471Z,12.00
2022-10-23T01:28:38.613Z,12.77
2022-10-23T01:31:14.821Z,9.07
2022-10-23T01:33:48.471Z,8.95
2022-10-23T01:36:28.213Z,8.80
2022-10-23T01:41:41.593Z,10.52
2022-10-23T01:44:15.679Z,10.88
2022-10-23T01:46:46.372Z,12.20
2022-10-23T01:49:15.944Z,10.98
2022-10-23T01:51:49.980Z,11.32
2022-10-23T01:54:20.462Z,9.82
2022-10-23T01:56:51.210Z,10.35
2022-10-23T01:59:28.094Z,10.65
2022-10-23T02:01:59.437Z,9.65
2022-10-23T02:04:32.341Z,9.82
2022-10-23T02:07:01.120Z,9.55
2022-10-23T02:09:29.178Z,14.20
2022-10-23T02:12:02.938Z,11.77
2022-10-23T02:14:41.823Z,8.93
2022-10-23T02:17:18.025Z,10.05
2022-10-23T02:19:56.263Z,13.20
2022-10-23T02:22:28.399Z,9.02
2022-10-23T02:25:02.701Z,8.10
2022-10-23T02:27:37.598Z,7.90
2022-10-23T02:30:13.223Z,8.82
2022-10-23T02:32:45.931Z,8.73
2022-10-23T02:35:14.754Z,8.18
2022-10-23T02:37:43.126Z,7.00
2022-10-23T02:40:12.886Z,16.13
2022-10-23T02:42:54.968Z,11.13
2022-10-23T02:45:31.070Z,10.05
2022-10-23T02:48:02.924Z,7.47
2022-10-23T02:50:38.722Z,6.80
2022-10-23T02:53:16.346Z,8.45
2022-10-23T02:55:52.263Z,7.43
2022-10-23T02:58:25.507Z,10.20
2022-10-23T03:01:00.629Z,7.97
2022-10-23T03:03:32.754Z,12.40
2022-10-23T03:06:01.166Z,8.93
2022-10-23T03:08:29.524Z,6.35
2022-10-23T03:10:59.108Z,9.48
2022-10-23T03:13:29.944Z,7.07
2022-10-23T03:15:59.539Z,6.13
2022-10-23T03:18:28.101Z,6.90
2022-10-23T03:20:58.794Z,7.43
2022-10-23T03:23:26.728Z,6.45
2022-10-23T03:25:56.456Z,7.78
2022-10-23T03:28:35.364Z,6.15
2022-10-23T03:31:05.249Z,6.40
2022-10-23T03:33:33.891Z,6.10
2022-10-23T03:36:10.122Z,6.07
2022-10-23T03:38:38.115Z,7.18
2022-10-23T03:41:07.013Z,9.20
2022-10-23T03:43:34.970Z,6.18
2022-10-23T03:46:09.157Z,7.38
2022-10-23T03:48:38.187Z,5.80
2022-10-23T03:51:06.993Z,4.95
2022-10-23T03:53:35.339Z,6.43
2022-10-23T03:56:05.046Z,7.03
2022-10-23T03:58:34.829Z,8.68
2022-10-23T04:01:04.297Z,5.78
2022-10-23T04:03:32.244Z,5.40
2022-10-23T04:06:02.671Z,7.10
2022-10-23T04:08:30.773Z,5.00
2022-10-23T04:10:59.041Z,6.88
2022-10-23T04:13:43.878Z,7.78
2022-10-23T04:16:13.152Z,4.60
2022-10-23T04:18:42.035Z,5.10
2022-10-23T04:21:11.701Z,5.00
2022-10-23T04:23:40.504Z,8.93
2022-10-23T04:26:17.897Z,6.45
2022-10-23T04:28:45.847Z,7.65
2022-10-23T04:31:15.085Z,16.90
2022-10-23T04:33:44.339Z,8.20
2022-10-23T04:36:26.265Z,7.63
2022-10-23T04:38:54.403Z,7.43
2022-10-23T04:41:22.323Z,6.82
2022-10-23T04:43:50.253Z,4.75
2022-10-23T04:46:20.067Z,6.43
2022-10-23T04:48:49.600Z,8.85
2022-10-23T04:51:47.359Z,5.55
2022-10-23T04:54:37.057Z,6.75
2022-10-23T04:57:23.539Z,4.97
2022-10-23T05:00:03.329Z,5.67
2022-10-23T05:02:40.872Z,8.48
2022-10-23T05:05:10.091Z,8.05
2022-10-23T05:08:17.119Z,5.60
2022-10-23T05:11:13.171Z,6.70
2022-10-23T05:13:45.716Z,7.75
2022-10-23T05:16:21.086Z,7.72
2022-10-23T05:18:50.859Z,10.60
2022-10-23T05:21:23.145Z,10.80
2022-10-23T05:23:51.888Z,6.65
2022-10-23T05:26:19.904Z,8.30
2022-10-23T05:28:49.571Z,10.23
2022-10-23T05:31:20.893Z,7.53
2022-10-23T05:33:55.620Z,7.32
2022-10-23T05:36:25.143Z,5.97
2022-10-23T05:38:57.931Z,12.18
2022-10-23T05:41:26.919Z,6.75
2022-10-23T05:43:58.648Z,7.05
2022-10-23T05:46:45.328Z,6.90
2022-10-23T05:49:21.133Z,8.48
2022-10-23T05:52:12.297Z,7.57
2022-10-23T05:54:47.706Z,8.60
2022-10-23T05:57:35.958Z,6.40
2022-10-23T06:00:08.963Z,6.70
2022-10-23T06:02:42.968Z,6.47
2022-10-23T06:05:29.271Z,10.70
2022-10-23T06:13:16.787Z,7.28
2022-10-23T06:15:44.680Z,7.75
2022-10-23T06:18:18.860Z,8.45
2022-10-23T06:20:56.172Z,8.10
2022-10-23T06:23:28.121Z,7.45
2022-10-23T06:26:16.205Z,8.13
2022-10-23T06:29:01.449Z,9.77
2022-10-23T06:31:29.768Z,10.38
2022-10-23T06:33:59.959Z,9.23
2022-10-23T06:36:31.661Z,9.73
2022-10-23T06:39:11.193Z,9.73
2022-10-23T06:41:56.027Z,9.07
2022-10-23T06:45:06.266Z,9.50
2022-10-23T06:47:44.204Z,9.07
2022-10-23T06:50:32.617Z,12.10
2022-10-23T06:53:08.004Z,7.55
2022-10-23T06:55:40.276Z,7.90
2022-10-23T06:58:10.800Z,9.15
2022-10-23T07:00:53.849Z,10.43
2022-10-23T07:03:22.021Z,10.90
2022-10-23T07:05:50.534Z,11.18
2022-10-23T07:08:21.736Z,10.27
2022-10-23T07:10:52.662Z,9.68
2022-10-23T07:13:22.357Z,9.52
2022-10-23T07:15:59.226Z,9.35
2022-10-23T07:18:28.572Z,10.02
2022-10-23T07:21:19.016Z,10.15
2022-10-23T07:23:48.541Z,10.93
2022-10-23T07:26:18.076Z,12.60
2022-10-23T07:28:48.001Z,11.73
2022-10-23T07:31:24.295Z,16.83
2022-10-23T07:34:13.837Z,12.65
2022-10-23T07:36:42.899Z,9.88
2022-10-23T07:39:12.953Z,8.77
2022-10-23T07:41:48.122Z,11.32
2022-10-23T07:44:16.137Z,11.40
2022-10-23T07:46:44.015Z,11.77
2022-10-23T07:49:12.313Z,10.93
2022-10-23T07:51:41.154Z,9.88
2022-10-23T07:54:13.643Z,11.15
2022-10-23T07:56:53.809Z,12.20
2022-10-23T07:59:38.132Z,10.18
2022-10-23T08:02:12.718Z,12.30
2022-10-23T08:04:40.837Z,23.23
2022-10-23T08:07:20.191Z,12.85
2022-10-23T08:09:51.815Z,11.70
2022-10-23T08:12:19.850Z,21.73
2022-10-23T08:14:47.806Z,39.53
2022-10-23T08:17:15.766Z,37.60
2022-10-23T08:20:04.030Z,14.00
2022-10-23T08:22:39.098Z,13.45
2022-10-23T08:25:09.550Z,14.60
2022-10-23T08:30:06.662Z,14.02
2022-10-23T08:32:34.692Z,17.52
2022-10-23T08:35:04.146Z,16.57
2022-10-23T08:37:33.779Z,17.58
2022-10-23T08:40:01.715Z,16.67
2022-10-23T08:43:13.051Z,17.80
2022-10-23T08:45:57.189Z,19.13
2022-10-23T08:48:50.519Z,20.00
2022-10-23T08:51:43.725Z,53.03
2022-10-23T08:54:15.981Z,71.72
2022-10-23T08:56:49.161Z,49.55
2022-10-23T08:59:25.178Z,28.85
2022-10-23T09:01:59.300Z,23.15
2022-10-23T09:04:27.361Z,17.67
2022-10-23T09:07:07.160Z,18.13
2022-10-23T09:09:51.661Z,135.00
2022-10-23T09:12:23.258Z,88.38
2022-10-23T09:15:19.119Z,71.88
2022-10-23T09:17:48.116Z,60.88
2022-10-23T09:20:21.549Z,35.92
2022-10-23T09:22:51.422Z,29.60
2022-10-23T09:25:25.115Z,22.20
2022-10-23T09:27:57.395Z,37.97
2022-10-23T09:30:33.023Z,35.40
2022-10-23T09:33:01.820Z,40.35
2022-10-23T09:35:31.675Z,25.02
2022-10-23T09:37:59.819Z,27.73
2022-10-23T09:40:34.192Z,24.15
2022-10-23T09:43:04.835Z,15.43
2022-10-23T09:45:35.895Z,11.35
2022-10-23T09:48:13.497Z,9.15
2022-10-23T09:51:00.036Z,9.38
2022-10-23T09:53:34.371Z,6.50
2022-10-23T09:56:04.853Z,3.53
2022-10-23T09:58:36.154Z,3.13
2022-10-23T10:01:06.589Z,4.95
2022-10-23T10:03:50.487Z,5.80
2022-10-23T10:06:24.578Z,15.38
2022-10-23T10:08:55.812Z,7.63
2022-10-23T10:11:31.007Z,4.78
2022-10-23T10:14:32.166Z,6.70
2022-10-23T10:17:06.724Z,3.47
2022-10-23T10:19:49.303Z,6.05
2022-10-23T10:22:29.845Z,6.78
2022-10-23T10:25:04.742Z,2.95
2022-10-23T10:27:46.038Z,5.43
2022-10-23T10:30:19.580Z,8.55
2022-10-23T10:32:55.486Z,2.67
2022-10-23T10:35:41.730Z,3.88
2022-10-23T10:38:42.558Z,3.25
2022-10-23T10:41:37.912Z,3.30
2022-10-23T10:44:38.602Z,3.95
2022-10-23T10:47:20.947Z,1.83
2022-10-23T10:50:03.566Z,4.40
2022-10-23T10:53:00.011Z,5.03
2022-10-23T10:55:33.378Z,5.82
2022-10-23T10:58:06.846Z,1.50
2022-10-23T11:00:35.742Z,5.60
2022-10-23T11:03:11.382Z,4.07
2022-10-23T11:05:44.560Z,3.60
2022-10-23T11:08:16.148Z,2.10
2022-10-23T11:10:47.216Z,5.53
2022-10-23T11:13:26.448Z,4.28
2022-10-23T11:15:59.033Z,4.97
2022-10-23T11:18:29.437Z,2.25
2022-10-23T11:21:09.965Z,4.80
2022-10-23T11:24:15.025Z,3.30
2022-10-23T11:26:55.067Z,3.65
2022-10-23T11:29:40.842Z,3.58
2022-10-23T11:32:24.223Z,6.43
2022-10-23T11:35:21.838Z,1.80
2022-10-23T11:38:01.581Z,5.03
2022-10-23T11:40:30.558Z,1.42
2022-10-23T11:42:58.543Z,3.42
2022-10-23T11:45:32.939Z,2.08
2022-10-23T11:48:03.608Z,3.42
2022-10-23T11:50:34.140Z,2.83
2022-10-23T11:53:24.076Z,5.68
2022-10-23T11:56:00.175Z,3.50
2022-10-23T11:58:32.090Z,2.33
2022-10-23T12:01:05.690Z,2.22
2022-10-23T12:03:42.809Z,3.95
2022-10-23T12:06:22.521Z,3.35
2022-10-23T12:08:59.756Z,4.25
2022-10-23T12:11:43.656Z,3.92
2022-10-23T12:14:31.035Z,1.75
2022-10-23T12:16:59.411Z,3.08
2022-10-23T12:19:28.860Z,4.35
2022-10-23T12:21:59.679Z,6.37
2022-10-23T12:24:52.230Z,4.18
2022-10-23T12:27:29.731Z,1.35
2022-10-23T12:30:22.366Z,2.83
2022-10-23T12:33:12.446Z,1.90
2022-10-23T12:35:56.318Z,2.97
2022-10-23T12:38:31.302Z,6.50
2022-10-23T12:41:11.379Z,3.25
2022-10-23T12:43:41.390Z,3.83
2022-10-23T12:46:26.743Z,2.40
2022-10-23T12:48:56.641Z,1.88
2022-10-23T12:51:26.646Z,5.50
2022-10-23T12:53:54.955Z,2.17
2022-10-23T12:56:25.914Z,5.35
2022-10-23T12:58:56.271Z,2.58
2022-10-23T13:01:26.534Z,5.00
2022-10-23T13:06:28.382Z,10.00
2022-10-23T13:08:57.141Z,1.77
2022-10-23T13:12:00.034Z,4.32
2022-10-23T13:14:34.086Z,3.45
2022-10-23T13:17:04.870Z,5.47
2022-10-23T13:19:33.359Z,2.88
2022-10-23T13:22:02.152Z,3.13
2022-10-23T13:24:31.467Z,3.95
2022-10-23T13:27:00.643Z,1.93
2022-10-23T13:29:32.348Z,2.97
2022-10-23T13:32:11.106Z,3.38
2022-10-23T13:34:39.103Z,5.38
2022-10-23T13:37:24.836Z,3.67
2022-10-23T13:40:01.685Z,2.85
2022-10-23T13:42:31.162Z,3.47
2022-10-23T13:44:59.057Z,3.13
2022-10-23T13:47:26.922Z,2.78
2022-10-23T13:49:54.719Z,5.47
2022-10-23T13:52:24.414Z,3.25
2022-10-23T13:54:52.203Z,2.45
2022-10-23T13:57:20.104Z,4.07
2022-10-23T13:59:49.309Z,5.22
2022-10-23T14:02:21.428Z,3.25
2022-10-23T14:04:49.599Z,2.22
2022-10-23T14:07:17.616Z,3.03
2022-10-23T14:09:45.731Z,2.67
2022-10-23T14:12:13.700Z,3.53
2022-10-23T14:14:41.659Z,4.82
2022-10-23T14:17:10.788Z,3.95
2022-10-23T14:19:38.947Z,3.47
2022-10-23T14:22:06.938Z,7.05
2022-10-23T14:24:34.777Z,1.80
2022-10-23T14:27:02.708Z,4.10
2022-10-23T14:29:30.565Z,4.63
2022-10-23T14:31:58.442Z,1.60
2022-10-23T14:34:27.647Z,5.13
2022-10-23T14:37:07.997Z,5.47
2022-10-23T14:39:37.158Z,3.85
2022-10-23T14:42:05.490Z,3.35
2022-10-23T14:44:33.359Z,5.25
2022-10-23T14:47:03.009Z,3.13
2022-10-23T14:49:33.464Z,5.15
2022-10-23T14:52:01.280Z,1.92
2022-10-23T14:54:31.215Z,4.88
2022-10-23T14:56:59.116Z,7.38
2022-10-23T14:59:27.043Z,1.50
2022-10-23T15:01:54.990Z,3.35
2022-10-23T15:04:23.043Z,3.95
2022-10-23T15:06:53.298Z,5.68
2022-10-23T15:11:49.413Z,4.18
2022-10-23T15:14:18.021Z,3.10
2022-10-23T15:16:45.884Z,3.83
2022-10-23T15:19:18.447Z,3.78
2022-10-23T15:21:47.647Z,1.65
2022-10-23T15:24:17.749Z,3.13
2022-10-23T15:26:46.028Z,2.78
2022-10-23T15:29:15.296Z,2.65
2022-10-23T15:31:46.321Z,3.80
2022-10-23T15:34:16.365Z,10.07
2022-10-23T15:36:44.872Z,10.27
2022-10-23T15:39:14.663Z,7.28
2022-10-23T15:41:44.457Z,6.80
2022-10-23T15:44:15.032Z,1.70
2022-10-23T15:46:43.313Z,2.75
2022-10-23T15:49:11.708Z,3.90
2022-10-23T15:51:40.452Z,2.78
2022-10-23T15:54:10.711Z,3.42
2022-10-23T15:59:07.760Z,2.85
2022-10-23T16:01:35.793Z,2.15
2022-10-23T16:04:04.953Z,3.55
2022-10-23T16:06:33.239Z,4.55
2022-10-23T16:09:01.119Z,2.10
2022-10-23T16:11:30.972Z,4.90
2022-10-23T16:14:00.290Z,2.90
2022-10-23T16:16:30.217Z,4.37
2022-10-23T16:19:00.817Z,7.13
2022-10-23T16:21:30.942Z,4.55
2022-10-23T16:24:01.286Z,14.93
2022-10-23T16:26:30.381Z,4.97
2022-10-23T16:28:59.661Z,7.10
2022-10-23T16:31:29.693Z,8.98
2022-10-23T16:33:58.741Z,15.35
2022-10-23T16:36:26.675Z,13.20
2022-10-23T16:39:10.916Z,4.88
2022-10-23T16:41:57.331Z,6.85
2022-10-23T16:44:31.060Z,10.70
2022-10-23T16:47:02.297Z,9.15
2022-10-23T16:49:32.115Z,10.17
2022-10-23T16:52:00.058Z,6.32
2022-10-23T16:54:27.923Z,8.15
2022-10-23T16:56:55.823Z,8.60
2022-10-23T16:59:23.718Z,13.20
2022-10-23T17:01:51.726Z,8.40
2022-10-23T17:04:21.372Z,10.48
2022-10-23T17:06:49.184Z,4.90
2022-10-23T17:09:19.259Z,5.15
2022-10-23T17:11:47.936Z,4.38
2022-10-23T17:14:18.680Z,4.40
2022-10-23T17:16:48.273Z,5.45
2022-10-23T17:19:43.320Z,5.80
2022-10-23T17:22:10.554Z,3.72
2022-10-23T17:24:40.842Z,2.30
2022-10-23T17:27:08.875Z,5.28
2022-10-23T17:29:37.955Z,2.92
2022-10-23T17:32:06.565Z,2.95
2022-10-23T17:34:34.469Z,4.82
2022-10-23T17:37:02.333Z,2.38
2022-10-23T17:39:31.627Z,4.40
2022-10-23T17:41:59.712Z,2.95
2022-10-23T17:44:29.084Z,3.80
2022-10-23T17:46:57.034Z,4.57
2022-10-23T17:49:25.907Z,5.18
2022-10-23T17:51:55.009Z,2.75
2022-10-23T17:54:24.191Z,3.40
2022-10-23T17:56:53.485Z,3.30
2022-10-23T17:59:23.235Z,6.43
2022-10-23T18:01:52.188Z,3.97
2022-10-23T18:04:22.839Z,3.20
2022-10-23T18:06:54.815Z,3.15
2022-10-23T18:09:24.791Z,4.55
2022-10-23T18:11:54.760Z,3.72
2022-10-23T18:14:26.186Z,4.03
2022-10-23T18:16:58.475Z,3.28
2022-10-23T18:19:27.346Z,6.82
2022-10-23T18:21:56.069Z,3.17
2022-10-23T18:24:25.657Z,5.57
2022-10-23T18:26:54.882Z,3.03
2022-10-23T18:29:22.824Z,6.15
2022-10-23T18:31:50.888Z,6.03
2022-10-23T18:34:20.729Z,5.43
2022-10-23T18:36:50.619Z,5.00
2022-10-23T18:39:22.315Z,4.40
2022-10-23T18:41:52.564Z,3.60
2022-10-23T18:44:22.780Z,5.20
2022-10-23T18:49:19.936Z,3.33
2022-10-23T18:51:49.699Z,3.85
2022-10-23T18:54:18.901Z,3.88
2022-10-23T18:56:46.956Z,5.68
2022-10-23T18:59:16.649Z,3.50
2022-10-23T19:01:46.157Z,11.60
2022-10-23T19:04:16.128Z,6.53
2022-10-23T19:06:44.268Z,5.70
2022-10-23T19:09:14.801Z,4.35
2022-10-23T19:11:43.879Z,5.30
2022-10-23T19:14:12.228Z,7.72
2022-10-23T19:16:44.952Z,5.00
2022-10-23T19:19:19.172Z,7.85
2022-10-23T19:21:48.706Z,10.77
2022-10-23T19:24:23.188Z,8.90
2022-10-23T19:26:51.684Z,9.52
2022-10-23T19:29:22.810Z,12.23
2022-10-23T19:31:51.684Z,12.05
2022-10-23T19:34:24.629Z,9.13
2022-10-23T19:36:54.630Z,7.88
2022-10-23T19:39:22.964Z,6.93
2022-10-23T19:41:51.893Z,8.85
2022-10-23T19:44:20.881Z,5.65
2022-10-23T19:46:49.458Z,5.38
2022-10-23T19:49:17.352Z,7.22
2022-10-23T19:51:51.207Z,8.35
2022-10-23T19:54:20.637Z,7.38
2022-10-23T19:56:48.721Z,7.63
2022-10-23T19:59:16.722Z,6.00
2022-10-23T20:01:47.810Z,6.72
2022-10-23T20:04:17.565Z,6.25
2022-10-23T20:06:47.682Z,6.18
2022-10-23T20:09:15.840Z,5.65
2022-10-23T20:11:45.147Z,7.40
2022-10-23T20:14:13.516Z,9.70
2022-10-23T20:16:41.704Z,6.88
2022-10-23T20:19:12.222Z,5.95
2022-10-23T20:21:42.558Z,6.38
2022-10-23T20:26:40.604Z,4.53
2022-10-23T20:29:08.575Z,5.65
2022-10-23T20:31:36.914Z,5.07
2022-10-23T20:34:04.750Z,5.32
2022-10-23T20:36:34.223Z,3.95
2022-10-23T20:39:05.112Z,5.50
2022-10-23T20:41:37.098Z,2.50
2022-10-23T20:44:07.113Z,3.90
2022-10-23T20:46:35.560Z,8.50
2022-10-23T20:49:03.645Z,5.00
2022-10-23T20:51:31.626Z,7.25
2022-10-23T20:53:59.673Z,10.88
2022-10-23T20:56:31.074Z,10.82
2022-10-23T20:59:02.089Z,9.73
2022-10-23T21:01:31.526Z,7.07
2022-10-23T21:04:01.232Z,4.23
2022-10-23T21:06:45.674Z,7.07
2022-10-23T21:09:13.963Z,3.38
2022-10-23T21:11:41.806Z,4.70
2022-10-23T21:14:11.131Z,4.65
2022-10-23T21:16:41.614Z,3.37
2022-10-23T21:19:12.861Z,5.72
2022-10-23T21:21:41.033Z,4.82
2022-10-23T21:24:11.401Z,3.55
2022-10-23T21:26:39.263Z,6.68
2022-10-23T21:29:18.064Z,4.68
2022-10-23T21:31:53.077Z,5.00
2022-10-23T21:34:21.087Z,3.40
2022-10-23T21:37:11.394Z,4.13
2022-10-23T21:39:36.775Z,3.53
2022-10-23T21:42:04.880Z,4.55
2022-10-23T21:44:33.028Z,3.10
2022-10-23T21:47:02.479Z,4.07
2022-10-23T21:49:30.574Z,3.22
2022-10-23T21:51:58.388Z,2.75
2022-10-23T21:54:26.446Z,8.10
2022-10-23T21:56:54.847Z,6.90
2022-10-23T21:59:25.771Z,7.18
2022-10-23T22:01:55.788Z,5.60
2022-10-23T22:04:25.082Z,3.75
2022-10-23T22:06:53.356Z,3.45
2022-10-23T22:09:23.083Z,4.18
2022-10-23T22:11:51.694Z,5.85
2022-10-23T22:14:20.113Z,2.50
2022-10-23T22:16:48.623Z,5.60
2022-10-23T22:19:18.807Z,3.17
2022-10-23T22:21:49.196Z,5.32
2022-10-23T22:24:18.480Z,4.60
2022-10-23T22:26:48.016Z,3.05
2022-10-23T22:29:18.318Z,7.30
2022-10-23T22:34:27.119Z,4.97
2022-10-23T22:37:11.819Z,5.00
2022-10-23T22:39:40.636Z,7.22
2022-10-23T22:42:08.570Z,4.55
2022-10-23T22:44:36.472Z,4.57
2022-10-23T22:47:04.553Z,5.47
2022-10-23T22:49:32.381Z,3.55
2022-10-23T22:52:00.258Z,7.72
2022-10-23T22:54:30.524Z,9.05
2022-10-23T22:59:26.401Z,6.07
2022-10-23T23:01:54.410Z,6.38
2022-10-23T23:04:38.973Z,4.30
2022-10-23T23:07:07.790Z,6.05
2022-10-23T23:09:38.827Z,7.22
2022-10-23T23:12:07.250Z,6.18
2022-10-23T23:14:35.177Z,6.47
2022-10-23T23:17:03.276Z,3.88
2022-10-23T23:19:31.206Z,3.78
2022-10-23T23:22:00.363Z,4.90
2022-10-23T23:24:28.543Z,7.72
2022-10-23T23:26:57.778Z,5.07
2022-10-23T23:29:25.593Z,8.15
2022-10-23T23:31:53.512Z,8.43
2022-10-23T23:34:22.259Z,5.32
2022-10-23T23:36:50.142Z,7.03
2022-10-23T23:39:18.492Z,5.30
2022-10-23T23:41:46.358Z,5.88
2022-10-23T23:44:15.502Z,7.25
2022-10-23T23:46:43.373Z,9.00
2022-10-23T23:49:11.177Z,6.88
2022-10-23T23:51:39.035Z,5.35
2022-10-23T23:54:06.993Z,6.50
2022-10-23T23:56:34.848Z,6.43
2022-10-23T23:59:02.741Z,7.50
